Time;durP1;ratioP1;P1;durP2;ratioP2;P2;SDS_P1;SDS_P2;PMS_P1;PMS_P2;Temp;Humidity;BMP_temperature;BMP_pressure;BME280_temperature;BME280_humidity;BME280_pressure;Samples;Min_cycle;Max_cycle;Signal;HPM_P1;HPM_P2
2023/10/03 00:00:31;;;;;;;15.13;4.57;;;11.50;99.90;;;;;;5073551;28;20081;-79
2023/10/03 00:03:04;;;;;;;12.05;5.20;;;11.50;99.90;;;;;;5055938;28;20035;-77
2023/10/03 00:05:31;;;;;;;10.18;5.15;;;11.50;99.90;;;;;;5075209;28;20043;-78
2023/10/03 00:07:59;;;;;;;18.35;5.93;;;11.40;99.90;;;;;;5071488;28;20064;-78
2023/10/03 00:10:26;;;;;;;13.68;4.95;;;11.40;99.90;;;;;;5072484;28;20082;-78
2023/10/03 00:12:52;;;;;;;13.38;5.43;;;11.40;99.90;;;;;;5072318;28;20470;-78
2023/10/03 00:15:20;;;;;;;12.57;6.07;;;11.40;99.90;;;;;;5072720;28;20105;-78
2023/10/03 00:17:47;;;;;;;16.05;5.65;;;11.40;99.90;;;;;;5071566;28;20031;-78
2023/10/03 00:20:16;;;;;;;13.45;5.45;;;11.40;99.90;;;;;;5071614;28;20094;-80
2023/10/03 00:22:42;;;;;;;10.20;5.90;;;11.40;99.90;;;;;;5074244;28;20020;-78
2023/10/03 00:25:16;;;;;;;11.32;5.97;;;11.40;99.90;;;;;;5072127;28;20035;-79
2023/10/03 00:27:42;;;;;;;14.98;5.93;;;11.40;99.90;;;;;;5071018;28;20379;-79
2023/10/03 00:30:10;;;;;;;17.15;5.60;;;11.30;99.90;;;;;;5071379;28;20040;-79
2023/10/03 00:32:37;;;;;;;11.88;5.90;;;11.40;99.90;;;;;;5073608;28;20031;-79
2023/10/03 00:35:03;;;;;;;11.82;6.20;;;11.40;99.90;;;;;;5073877;28;20029;-79
2023/10/03 00:37:29;;;;;;;10.50;5.20;;;11.40;99.90;;;;;;5070531;28;20032;-79
2023/10/03 00:39:57;;;;;;;9.27;4.82;;;11.30;99.90;;;;;;5070435;28;20101;-79
2023/10/03 00:42:24;;;;;;;15.15;5.15;;;11.30;99.90;;;;;;5069681;28;20021;-78
2023/10/03 00:44:49;;;;;;;12.60;4.85;;;11.30;99.90;;;;;;5070393;28;20033;-78
2023/10/03 00:47:15;;;;;;;15.43;5.43;;;11.30;99.90;;;;;;5069321;28;20340;-78
2023/10/03 00:49:45;;;;;;;9.65;4.72;;;11.20;99.90;;;;;;5069792;28;20045;-78
2023/10/03 00:52:12;;;;;;;14.90;4.85;;;11.20;99.90;;;;;;5070297;28;20052;-78
2023/10/03 00:54:39;;;;;;;17.58;4.78;;;11.30;99.90;;;;;;5069874;28;20078;-78
2023/10/03 00:57:05;;;;;;;17.55;4.63;;;11.20;99.90;;;;;;5070247;28;20036;-78
2023/10/03 00:59:33;;;;;;;14.27;4.10;;;11.30;99.90;;;;;;5069655;28;20021;-78
2023/10/03 01:02:05;;;;;;;11.48;4.20;;;11.30;99.90;;;;;;5069771;28;20036;-79
2023/10/03 01:04:31;;;;;;;11.30;3.95;;;11.30;99.90;;;;;;5069798;28;20058;-78
2023/10/03 01:06:59;;;;;;;13.98;4.05;;;11.40;99.90;;;;;;5070043;28;20172;-78
2023/10/03 01:09:28;;;;;;;11.00;3.85;;;11.50;99.90;;;;;;5069552;28;20021;-79
2023/10/03 01:11:56;;;;;;;13.73;4.00;;;11.50;99.90;;;;;;5051659;28;20459;-78
2023/10/03 01:14:23;;;;;;;14.38;3.55;;;11.60;99.90;;;;;;5069309;28;20024;-78
2023/10/03 01:16:49;;;;;;;14.65;4.38;;;11.70;99.90;;;;;;5070078;28;20110;-78
2023/10/03 01:19:25;;;;;;;11.38;3.40;;;11.70;99.90;;;;;;5051789;28;20036;-80
2023/10/03 01:21:51;;;;;;;9.50;3.72;;;11.80;99.90;;;;;;5070907;28;20036;-78
2023/10/03 01:24:20;;;;;;;8.75;3.58;;;11.80;99.90;;;;;;5073520;28;20439;-79
2023/10/03 01:26:52;;;;;;;10.80;3.13;;;11.80;99.90;;;;;;5076513;28;20028;-78
2023/10/03 01:29:18;;;;;;;7.60;3.08;;;11.90;99.90;;;;;;5075864;28;20028;-81
2023/10/03 01:31:44;;;;;;;10.55;3.10;;;11.90;99.90;;;;;;5073705;28;20086;-78
2023/10/03 01:34:10;;;;;;;7.75;2.70;;;12.00;99.90;;;;;;5074786;28;20025;-78
2023/10/03 01:36:36;;;;;;;11.32;3.47;;;12.00;99.90;;;;;;5073042;28;20029;-78
2023/10/03 01:39:02;;;;;;;8.00;3.03;;;12.00;99.90;;;;;;5076130;28;20027;-79
2023/10/03 01:41:28;;;;;;;11.27;3.15;;;12.00;99.90;;;;;;5074169;28;20028;-79
2023/10/03 01:43:54;;;;;;;7.82;3.20;;;12.10;99.90;;;;;;5057158;28;20078;-79
2023/10/03 01:46:19;;;;;;;8.80;3.20;;;12.10;99.90;;;;;;5057123;28;20056;-79
2023/10/03 01:48:45;;;;;;;11.32;3.03;;;12.20;99.90;;;;;;5076671;28;20483;-78
2023/10/03 01:51:11;;;;;;;5.75;2.90;;;12.20;99.90;;;;;;5055215;28;20033;-79
2023/10/03 01:53:41;;;;;;;7.30;2.97;;;12.20;99.90;;;;;;5073089;28;20607;-79
2023/10/03 01:56:08;;;;;;;9.90;3.55;;;12.20;99.90;;;;;;5073286;28;20036;-78
2023/10/03 01:58:34;;;;;;;11.25;3.40;;;12.20;99.90;;;;;;5075206;28;20056;-78
2023/10/03 02:01:00;;;;;;;10.52;3.25;;;12.10;99.90;;;;;;5074775;28;20048;-79
2023/10/03 02:03:28;;;;;;;8.98;3.15;;;12.10;99.90;;;;;;5072571;28;20025;-79
2023/10/03 02:05:55;;;;;;;11.13;3.63;;;12.10;99.90;;;;;;5072878;28;20414;-79
2023/10/03 02:08:21;;;;;;;16.48;4.07;;;12.10;99.90;;;;;;5072552;28;20394;-81
2023/10/03 02:10:52;;;;;;;11.63;3.28;;;12.00;99.90;;;;;;5073003;28;20025;-80
2023/10/03 02:13:19;;;;;;;10.60;3.38;;;12.00;99.90;;;;;;5072541;28;20033;-82
2023/10/03 02:15:46;;;;;;;8.20;3.03;;;11.90;99.90;;;;;;5072890;28;20527;-79
2023/10/03 02:18:13;;;;;;;10.68;2.95;;;11.90;99.90;;;;;;5074727;28;20063;-78
2023/10/03 02:20:50;;;;;;;8.57;3.13;;;11.80;99.90;;;;;;5076799;28;20036;-79
2023/10/03 02:23:20;;;;;;;7.15;3.13;;;11.90;99.90;;;;;;5075092;28;20020;-78
2023/10/03 02:25:47;;;;;;;9.98;2.80;;;11.80;99.90;;;;;;5072756;28;20093;-78
2023/10/03 02:28:15;;;;;;;11.85;3.30;;;11.70;99.90;;;;;;5073627;28;20024;-79
2023/10/03 02:30:41;;;;;;;15.05;3.75;;;11.80;99.90;;;;;;5075649;28;20847;-79
2023/10/03 02:33:24;;;;;;;6.03;2.60;;;11.80;99.90;;;;;;5073601;28;20031;-79
2023/10/03 02:35:53;;;;;;;10.80;2.90;;;11.70;99.90;;;;;;5072188;28;20029;-78
2023/10/03 02:38:38;;;;;;;8.77;2.58;;;11.80;99.90;;;;;;5072874;28;20392;-80
2023/10/03 02:41:10;;;;;;;9.00;2.70;;;11.80;99.90;;;;;;5072485;28;20489;-78
2023/10/03 02:43:38;;;;;;;7.75;2.92;;;11.80;99.90;;;;;;5071717;28;20028;-78
2023/10/03 02:46:06;;;;;;;11.82;3.45;;;11.80;99.90;;;;;;5072098;28;20035;-78
2023/10/03 02:48:33;;;;;;;10.45;2.83;;;11.80;99.90;;;;;;5071488;28;20498;-79
2023/10/03 02:51:01;;;;;;;8.88;2.83;;;11.80;99.90;;;;;;5072174;28;20173;-77
2023/10/03 02:53:27;;;;;;;6.97;2.40;;;11.80;99.90;;;;;;5071332;28;20381;-79
2023/10/03 02:55:53;;;;;;;6.22;2.70;;;11.90;99.90;;;;;;5072008;28;20093;-78
2023/10/03 02:58:20;;;;;;;8.55;2.70;;;11.90;99.90;;;;;;5071858;28;20017;-79
2023/10/03 03:00:53;;;;;;;6.45;2.60;;;11.90;99.90;;;;;;5071571;28;20032;-78
2023/10/03 03:03:20;;;;;;;10.80;2.88;;;11.90;99.90;;;;;;5071826;28;20060;-78
2023/10/03 03:05:48;;;;;;;9.50;2.83;;;11.80;99.90;;;;;;5071586;28;20035;-79
2023/10/03 03:10:43;;;;;;;13.40;2.95;;;11.80;99.90;;;;;;5071403;28;20025;-79
2023/10/03 03:13:13;;;;;;;9.05;2.75;;;11.80;99.90;;;;;;5071901;28;20032;-78
2023/10/03 03:15:44;;;;;;;11.75;3.42;;;11.80;99.90;;;;;;5073058;28;20492;-78
2023/10/03 03:18:09;;;;;;;9.20;2.80;;;11.80;99.90;;;;;;5072759;28;20036;-77
2023/10/03 03:20:42;;;;;;;8.63;3.00;;;11.70;99.90;;;;;;5053808;28;20032;-78
2023/10/03 03:23:10;;;;;;;9.40;2.85;;;11.70;99.90;;;;;;5071605;28;20399;-78
2023/10/03 03:25:42;;;;;;;7.55;2.80;;;11.80;99.90;;;;;;5072406;28;20363;-79
2023/10/03 03:28:15;;;;;;;10.70;3.15;;;11.70;99.90;;;;;;5071476;28;20086;-78
2023/10/03 03:30:45;;;;;;;;;;;11.70;99.90;;;;;;5071775;28;20032;-78
2023/10/03 03:33:18;;;;;;;10.52;3.20;;;11.60;99.90;;;;;;5074415;28;19919;-78
2023/10/03 03:35:46;;;;;;;10.15;2.88;;;11.60;99.90;;;;;;5073543;28;20113;-78
2023/10/03 03:38:20;;;;;;;12.13;3.30;;;11.60;99.90;;;;;;5071387;28;20025;-78
2023/10/03 03:40:47;;;;;;;8.82;2.50;;;11.50;99.90;;;;;;5070645;28;20040;-78
2023/10/03 03:43:19;;;;;;;8.80;2.47;;;11.50;99.90;;;;;;5071067;28;20032;-78
2023/10/03 03:45:44;;;;;;;14.40;2.70;;;11.40;99.90;;;;;;5055528;28;20588;-78
2023/10/03 03:48:11;;;;;;;8.27;2.53;;;11.30;99.90;;;;;;5074738;28;20048;-79
2023/10/03 03:50:38;;;;;;;5.80;2.10;;;11.30;99.90;;;;;;5070726;28;20050;-79
2023/10/03 03:53:04;;;;;;;8.95;2.78;;;11.30;99.90;;;;;;5072459;28;20043;-79
2023/10/03 03:55:30;;;;;;;7.18;2.40;;;11.20;99.90;;;;;;5071721;28;20032;-79
2023/10/03 03:57:59;;;;;;;15.43;3.05;;;11.20;99.90;;;;;;5073531;28;20039;-80
2023/10/03 04:00:28;;;;;;;8.70;2.83;;;11.20;99.90;;;;;;5071137;28;20490;-80
2023/10/03 04:02:57;;;;;;;10.38;2.25;;;11.20;99.90;;;;;;5071029;28;20029;-78
2023/10/03 04:05:25;;;;;;;9.15;2.38;;;11.10;99.90;;;;;;5071000;28;20052;-79
2023/10/03 04:07:53;;;;;;;10.18;2.42;;;11.10;99.90;;;;;;5073959;28;20065;-77
2023/10/03 04:10:19;;;;;;;9.30;2.50;;;11.10;99.90;;;;;;5071251;28;20020;-78
2023/10/03 04:12:45;;;;;;;7.95;2.20;;;11.10;99.90;;;;;;5074132;28;20051;-79
2023/10/03 04:15:12;;;;;;;9.85;2.60;;;11.00;99.90;;;;;;5074852;28;20069;-79
2023/10/03 04:17:46;;;;;;;10.90;2.45;;;11.00;99.90;;;;;;5071453;28;20027;-79
2023/10/03 04:22:51;;;;;;;6.45;2.10;;;11.00;99.90;;;;;;5073886;28;20028;-79
2023/10/03 04:25:21;;;;;;;9.80;2.35;;;11.00;99.90;;;;;;5071115;28;20052;-79
2023/10/03 04:27:51;;;;;;;10.73;2.30;;;11.00;99.90;;;;;;5072237;28;20157;-79
2023/10/03 04:30:20;;;;;;;8.75;2.05;;;10.90;99.90;;;;;;5070915;28;20045;-79
2023/10/03 04:32:49;;;;;;;10.25;2.40;;;10.90;99.90;;;;;;5053512;28;20131;-78
2023/10/03 04:35:18;;;;;;;10.30;2.15;;;10.90;99.90;;;;;;5071683;28;20606;-78
2023/10/03 04:37:46;;;;;;;14.13;2.40;;;11.00;99.90;;;;;;5052558;28;20032;-79
2023/10/03 04:40:21;;;;;;;8.63;2.72;;;10.90;99.90;;;;;;5070922;28;20386;-78
2023/10/03 04:42:48;;;;;;;6.38;2.28;;;10.90;99.90;;;;;;5071160;28;20032;-78
2023/10/03 04:45:14;;;;;;;8.27;2.20;;;10.90;99.90;;;;;;5073564;28;20024;-78
2023/10/03 04:47:45;;;;;;;8.77;2.33;;;10.90;99.90;;;;;;5071185;28;20198;-79
2023/10/03 04:50:18;;;;;;;15.00;3.03;;;10.90;99.90;;;;;;5053682;28;20359;-78
2023/10/03 04:52:48;;;;;;;8.63;2.30;;;10.90;99.90;;;;;;5072525;28;20063;-79
2023/10/03 04:55:17;;;;;;;12.43;2.83;;;10.90;99.90;;;;;;5073333;28;20025;-78
2023/10/03 04:57:53;;;;;;;11.95;2.10;;;10.90;99.90;;;;;;5073670;28;20024;-79
2023/10/03 05:00:21;;;;;;;7.95;2.33;;;10.90;99.90;;;;;;5075093;28;20067;-78
2023/10/03 05:02:52;;;;;;;9.68;2.10;;;10.90;99.90;;;;;;5075820;28;20035;-79
2023/10/03 05:05:26;;;;;;;14.80;2.70;;;10.80;99.90;;;;;;5078530;28;20024;-79
2023/10/03 05:07:56;;;;;;;10.88;2.38;;;10.90;99.90;;;;;;5060624;28;20062;-77
2023/10/03 05:10:23;;;;;;;12.15;2.90;;;10.90;99.90;;;;;;5075695;28;20032;-78
2023/10/03 05:12:51;;;;;;;12.65;2.70;;;10.90;99.90;;;;;;5075955;28;20119;-79
2023/10/03 05:15:17;;;;;;;10.02;2.72;;;10.80;99.90;;;;;;5074120;28;20040;-78
2023/10/03 05:17:47;;;;;;;9.55;2.28;;;10.80;99.90;;;;;;5073636;28;20360;-78
2023/10/03 05:20:14;;;;;;;9.90;2.55;;;10.70;99.90;;;;;;5073927;28;20024;-78
2023/10/03 05:22:41;;;;;;;10.98;2.30;;;10.80;99.90;;;;;;5073517;28;20025;-78
2023/10/03 05:25:11;;;;;;;10.13;2.78;;;10.80;99.90;;;;;;5056108;28;20031;-79
2023/10/03 05:27:39;;;;;;;11.52;2.67;;;10.80;99.90;;;;;;5073384;28;20024;-79
2023/10/03 05:30:05;;;;;;;8.32;2.50;;;10.80;99.90;;;;;;5056103;28;20059;-79
2023/10/03 05:32:31;;;;;;;13.02;2.63;;;10.70;99.90;;;;;;5075423;28;20035;-82
2023/10/03 05:35:00;;;;;;;10.27;2.50;;;10.70;99.90;;;;;;5059526;28;20320;-79
2023/10/03 05:37:26;;;;;;;9.02;2.50;;;10.70;99.90;;;;;;5076140;28;20028;-78
2023/10/03 05:39:53;;;;;;;8.90;2.50;;;10.70;99.90;;;;;;5074241;28;20024;-78
2023/10/03 05:42:19;;;;;;;12.68;2.65;;;10.70;99.90;;;;;;5074980;28;20025;-78
2023/10/03 05:44:45;;;;;;;15.05;3.22;;;10.70;99.90;;;;;;5077721;28;20180;-78
2023/10/03 05:47:11;;;;;;;8.52;2.78;;;10.60;99.90;;;;;;5073449;28;20113;-78
2023/10/03 05:49:36;;;;;;;8.80;2.72;;;10.60;99.90;;;;;;5073379;28;20092;-79
2023/10/03 05:52:02;;;;;;;16.30;2.85;;;10.70;99.90;;;;;;5072758;28;20032;-79
2023/10/03 05:54:30;;;;;;;8.88;2.00;;;10.60;99.90;;;;;;5073124;28;20109;-78
2023/10/03 05:56:57;;;;;;;12.65;2.65;;;10.70;99.90;;;;;;5073103;28;20016;-80
2023/10/03 05:59:23;;;;;;;8.38;2.55;;;10.70;99.90;;;;;;5055400;28;20047;-79
2023/10/03 06:01:50;;;;;;;6.88;2.28;;;10.70;99.90;;;;;;5072564;28;20033;-79
2023/10/03 06:04:16;;;;;;;14.20;2.55;;;10.70;99.90;;;;;;5073181;28;20520;-79
2023/10/03 06:06:43;;;;;;;12.60;2.90;;;10.70;99.90;;;;;;5054270;28;20040;-79
2023/10/03 06:09:12;;;;;;;15.63;3.03;;;10.70;99.90;;;;;;5073902;28;20035;-79
2023/10/03 06:11:39;;;;;;;8.43;2.78;;;10.70;99.90;;;;;;5072639;28;20359;-79
2023/10/03 06:14:05;;;;;;;10.40;2.22;;;10.70;99.90;;;;;;5055437;28;20025;-79
2023/10/03 06:16:31;;;;;;;12.60;3.20;;;10.70;99.90;;;;;;5077250;28;20029;-79
2023/10/03 06:18:58;;;;;;;17.00;3.05;;;10.70;99.90;;;;;;5072080;28;20028;-78
2023/10/03 06:21:23;;;;;;;18.55;3.33;;;10.60;99.90;;;;;;5073088;28;20035;-78
2023/10/03 06:23:50;;;;;;;10.98;2.72;;;10.70;99.90;;;;;;5073126;28;20044;-78
2023/10/03 06:26:18;;;;;;;7.93;2.35;;;10.60;99.90;;;;;;5072659;28;20032;-77
2023/10/03 06:28:45;;;;;;;10.38;2.40;;;10.70;99.90;;;;;;5071906;28;20052;-79
2023/10/03 06:31:11;;;;;;;14.52;2.47;;;10.70;99.90;;;;;;5072525;28;20387;-79
2023/10/03 06:33:39;;;;;;;9.23;2.40;;;10.80;99.90;;;;;;5071762;28;20029;-80
2023/10/03 06:36:06;;;;;;;9.10;3.05;;;10.80;99.90;;;;;;5072297;28;20033;-79
2023/10/03 06:38:32;;;;;;;11.90;2.90;;;10.80;99.90;;;;;;5072443;28;20082;-80
2023/10/03 06:40:59;;;;;;;11.45;2.90;;;10.80;99.90;;;;;;5071574;28;20025;-78
2023/10/03 06:43:25;;;;;;;12.57;2.15;;;10.80;99.90;;;;;;5072139;28;20021;-78
2023/10/03 06:45:50;;;;;;;14.68;2.47;;;10.80;99.90;;;;;;5071532;28;20020;-78
2023/10/03 06:48:16;;;;;;;11.02;2.40;;;10.80;99.90;;;;;;5071666;28;20044;-78
2023/10/03 06:50:42;;;;;;;14.23;2.45;;;10.80;99.90;;;;;;5071132;28;20504;-78
2023/10/03 06:53:09;;;;;;;11.75;2.95;;;10.90;99.90;;;;;;5071987;28;20116;-78
2023/10/03 06:55:36;;;;;;;10.40;2.67;;;10.90;99.90;;;;;;5071736;28;20028;-78
2023/10/03 06:58:03;;;;;;;11.00;3.00;;;10.90;99.90;;;;;;5071531;28;20025;-78
2023/10/03 07:00:30;;;;;;;8.38;2.47;;;11.00;99.90;;;;;;5071593;28;20040;-78
2023/10/03 07:02:56;;;;;;;13.38;2.55;;;11.00;99.90;;;;;;5071128;28;20025;-79
2023/10/03 07:05:22;;;;;;;12.13;2.17;;;11.00;99.90;;;;;;5071621;28;20028;-78
2023/10/03 07:07:48;;;;;;;8.68;2.20;;;11.10;99.90;;;;;;5071129;28;20025;-78
2023/10/03 07:10:13;;;;;;;9.55;2.47;;;11.10;99.90;;;;;;5071130;28;20020;-78
2023/10/03 07:12:39;;;;;;;10.68;2.30;;;11.20;99.90;;;;;;5071036;28;20032;-78
2023/10/03 07:15:08;;;;;;;8.40;2.55;;;11.20;99.90;;;;;;5071864;28;20052;-78
2023/10/03 07:17:35;;;;;;;12.18;2.40;;;11.20;99.90;;;;;;5071457;28;20031;-79
2023/10/03 07:20:08;;;;;;;10.30;2.25;;;11.30;99.90;;;;;;5052705;28;20025;-78
2023/10/03 07:22:34;;;;;;;11.93;2.78;;;11.40;99.90;;;;;;5071863;28;20028;-78
2023/10/03 07:25:00;;;;;;;13.38;2.47;;;11.40;99.90;;;;;;5071091;28;20062;-78
2023/10/03 07:27:35;;;;;;;10.43;2.40;;;11.50;99.90;;;;;;5071647;28;20028;-78
2023/10/03 07:30:05;;;;;;;11.57;3.17;;;11.60;99.90;;;;;;5071238;28;20459;-79
2023/10/03 07:32:32;;;;;;;12.18;2.47;;;11.70;99.90;;;;;;5071457;28;20029;-78
2023/10/03 07:35:02;;;;;;;11.43;2.95;;;11.70;99.90;;;;;;5071519;28;20265;-78
2023/10/03 07:37:28;;;;;;;16.73;2.88;;;11.80;99.90;;;;;;5071440;28;20037;-79
2023/10/03 07:39:54;;;;;;;12.88;2.45;;;11.80;99.90;;;;;;5070898;28;20039;-79
2023/10/03 07:42:23;;;;;;;10.93;2.65;;;11.90;99.90;;;;;;5071180;28;20020;-79
2023/10/03 07:44:52;;;;;;;9.85;2.55;;;11.90;99.90;;;;;;5070543;28;20016;-78
2023/10/03 07:47:18;;;;;;;10.23;2.47;;;12.00;99.90;;;;;;5071268;28;20036;-77
2023/10/03 07:49:46;;;;;;;8.40;2.47;;;12.10;99.90;;;;;;5071059;28;20090;-79
2023/10/03 07:52:12;;;;;;;14.00;2.40;;;12.10;99.90;;;;;;5071100;28;20386;-79
2023/10/03 07:54:38;;;;;;;11.45;2.33;;;12.20;99.90;;;;;;5071026;28;20031;-79
2023/10/03 07:57:06;;;;;;;9.85;2.10;;;12.20;99.90;;;;;;5071400;28;20035;-79
2023/10/03 07:59:33;;;;;;;4.00;1.75;;;12.30;99.90;;;;;;5071170;28;20035;-80
2023/10/03 08:02:05;;;;;;;10.82;2.60;;;12.30;99.90;;;;;;5069917;28;20025;-78
2023/10/03 08:04:37;;;;;;;8.85;2.33;;;12.30;99.90;;;;;;5070812;28;20028;-77
2023/10/03 08:07:04;;;;;;;12.32;2.17;;;12.50;99.90;;;;;;5070391;28;20024;-77
2023/10/03 08:09:31;;;;;;;12.45;2.00;;;12.60;99.90;;;;;;5070677;28;20029;-77
2023/10/03 08:11:57;;;;;;;13.27;2.33;;;12.60;99.90;;;;;;5070110;28;20485;-78
2023/10/03 08:14:23;;;;;;;7.45;1.92;;;12.60;99.90;;;;;;5070982;28;20036;-77
2023/10/03 08:16:49;;;;;;;13.05;2.45;;;12.60;99.90;;;;;;5070387;28;20032;-77
2023/10/03 08:19:24;;;;;;;11.13;2.63;;;12.60;99.90;;;;;;5071091;28;20078;-78
2023/10/03 08:21:52;;;;;;;9.95;1.88;;;12.70;99.90;;;;;;5070083;28;20029;-78
2023/10/03 08:24:24;;;;;;;12.23;2.20;;;12.80;99.90;;;;;;5070653;28;20048;-77
2023/10/03 08:26:54;;;;;;;15.82;2.47;;;12.80;99.90;;;;;;5052398;28;20032;-78
2023/10/03 08:29:23;;;;;;;8.77;2.40;;;12.90;99.90;;;;;;5070243;28;20036;-78
2023/10/03 08:31:50;;;;;;;11.32;1.98;;;12.90;99.90;;;;;;5070476;28;20451;-78
2023/10/03 08:34:19;;;;;;;9.65;2.08;;;13.00;99.90;;;;;;5074319;28;20046;-77
2023/10/03 08:36:45;;;;;;;12.07;2.45;;;13.00;99.90;;;;;;5073996;28;20055;-79
2023/10/03 08:39:14;;;;;;;11.00;2.53;;;13.00;99.90;;;;;;5074266;28;20036;-78
2023/10/03 08:42:12;;;;;;;9.52;2.15;;;13.00;99.90;;;;;;5074227;28;20141;-78
2023/10/03 08:44:49;;;;;;;12.85;2.20;;;12.90;99.90;;;;;;5074552;28;20029;-78
2023/10/03 08:47:17;;;;;;;7.45;2.03;;;12.90;99.90;;;;;;5074703;28;20086;-79
2023/10/03 08:49:48;;;;;;;9.00;2.10;;;12.90;99.90;;;;;;5073719;28;20510;-82
2023/10/03 08:52:14;;;;;;;7.88;1.77;;;12.90;99.90;;;;;;5074243;28;20039;-78
2023/10/03 08:54:41;;;;;;;9.02;2.28;;;13.00;99.90;;;;;;5073755;28;20360;-77
2023/10/03 08:57:11;;;;;;;8.10;2.10;;;13.00;99.90;;;;;;5055337;28;20395;-78
2023/10/03 08:59:41;;;;;;;8.18;2.20;;;13.00;99.90;;;;;;5073768;28;20086;-78
2023/10/03 09:02:14;;;;;;;7.45;2.28;;;13.20;99.90;;;;;;5054932;28;20339;-80
2023/10/03 09:04:40;;;;;;;10.10;2.45;;;13.30;99.90;;;;;;5074256;28;20044;-79
2023/10/03 09:07:09;;;;;;;8.20;2.15;;;13.30;99.90;;;;;;5073821;28;20066;-79
2023/10/03 09:09:42;;;;;;;9.02;2.08;;;13.40;99.90;;;;;;5056986;28;20028;-79
2023/10/03 09:12:09;;;;;;;10.20;2.33;;;13.50;99.90;;;;;;5057525;28;20028;-79
2023/10/03 09:14:37;;;;;;;8.20;2.13;;;13.60;99.90;;;;;;5055826;28;20033;-78
2023/10/03 09:17:06;;;;;;;8.48;2.42;;;13.60;99.90;;;;;;5073715;28;20131;-78
2023/10/03 09:19:45;;;;;;;9.63;2.30;;;13.70;99.90;;;;;;5074455;28;20025;-79
2023/10/03 09:22:15;;;;;;;9.27;1.98;;;13.70;99.90;;;;;;5074372;28;20069;-79
2023/10/03 09:24:44;;;;;;;6.40;1.85;;;13.70;99.90;;;;;;5074246;28;20067;-79
2023/10/03 09:27:17;;;;;;;11.48;2.22;;;13.70;99.90;;;;;;5056310;28;20021;-79
2023/10/03 09:29:45;;;;;;;10.52;1.98;;;13.70;99.90;;;;;;5074757;28;20024;-80
2023/10/03 09:32:15;;;;;;;10.07;2.03;;;13.80;99.90;;;;;;5074711;28;20024;-79
2023/10/03 09:34:46;;;;;;;8.70;1.77;;;13.80;99.90;;;;;;5073249;28;20344;-79
2023/10/03 09:37:13;;;;;;;8.98;2.53;;;13.80;99.90;;;;;;5073343;28;20056;-80
2023/10/03 09:39:39;;;;;;;12.25;2.28;;;13.90;99.90;;;;;;5073789;28;20090;-79
2023/10/03 09:42:16;;;;;;;10.30;2.58;;;13.90;99.90;;;;;;5054512;28;20397;-78
2023/10/03 09:44:48;;;;;;;10.52;2.10;;;14.00;99.90;;;;;;5073532;28;20029;-79
2023/10/03 09:47:17;;;;;;;10.65;2.30;;;14.10;99.90;;;;;;5074490;28;20032;-79
2023/10/03 09:49:44;;;;;;;9.10;2.30;;;14.20;99.90;;;;;;5073488;28;20055;-78
2023/10/03 09:52:22;;;;;;;10.77;2.30;;;14.30;99.90;;;;;;5054932;28;20351;-78
2023/10/03 09:54:53;;;;;;;7.35;2.30;;;14.30;99.90;;;;;;5073045;28;20028;-81
2023/10/03 09:57:22;;;;;;;9.40;2.40;;;14.40;99.90;;;;;;5055095;28;20032;-79
2023/10/03 09:59:49;;;;;;;11.68;2.25;;;14.40;99.90;;;;;;5073066;28;20020;-81
2023/10/03 10:02:18;;;;;;;10.45;2.92;;;14.50;99.90;;;;;;5072690;28;20032;-79
2023/10/03 10:04:47;;;;;;;11.23;2.30;;;14.50;99.90;;;;;;5073300;28;20082;-78
2023/10/03 10:07:29;;;;;;;9.27;2.40;;;14.60;99.90;;;;;;5072670;28;20031;-79
2023/10/03 10:10:14;;;;;;;7.35;1.92;;;14.50;99.90;;;;;;5072416;28;20029;-80
2023/10/03 10:13:24;;;;;;;8.45;2.20;;;14.60;99.90;;;;;;5072848;28;20029;-79
2023/10/03 10:16:07;;;;;;;10.40;2.40;;;14.60;99.90;;;;;;5072150;28;20475;-81
2023/10/03 10:18:45;;;;;;;9.18;2.90;;;14.70;99.90;;;;;;5072808;28;20027;-80
2023/10/03 10:21:20;;;;;;;10.57;2.25;;;14.80;99.90;;;;;;5072667;28;20439;-79
2023/10/03 10:24:20;;;;;;;12.32;2.88;;;14.90;99.90;;;;;;5072936;28;20033;-79
2023/10/03 10:26:52;;;;;;;8.48;2.38;;;15.10;99.90;;;;;;5067638;28;20166;-79
2023/10/03 10:29:28;;;;;;;11.00;2.13;;;15.10;99.90;;;;;;5072680;28;20047;-80
2023/10/03 10:31:58;;;;;;;6.88;2.38;;;15.20;99.90;;;;;;5072842;28;20034;-79
2023/10/03 10:34:27;;;;;;;8.30;2.30;;;15.30;99.90;;;;;;5071748;28;20028;-80
2023/10/03 10:37:15;;;;;;;12.75;2.65;;;15.30;99.90;;;;;;5071225;28;20035;-81
2023/10/03 10:40:10;;;;;;;11.05;2.35;;;15.20;99.90;;;;;;5072430;28;20382;-80
2023/10/03 10:42:55;;;;;;;11.55;2.08;;;15.10;99.90;;;;;;5072440;28;20029;-79
2023/10/03 10:45:21;;;;;;;5.32;2.17;;;15.10;99.90;;;;;;5072835;28;20025;-79
2023/10/03 10:47:50;;;;;;;7.55;2.10;;;15.10;99.90;;;;;;5072516;28;20025;-80
2023/10/03 10:50:17;;;;;;;8.63;1.98;;;15.10;99.90;;;;;;5071715;28;20455;-80
2023/10/03 10:52:53;;;;;;;9.68;2.10;;;15.20;99.90;;;;;;5072629;28;20043;-79
2023/10/03 10:55:23;;;;;;;8.23;2.30;;;15.20;99.90;;;;;;5053104;28;20020;-80
2023/10/03 10:58:17;;;;;;;7.97;2.15;;;15.30;99.90;;;;;;5053461;28;20029;-80
2023/10/03 11:00:44;;;;;;;7.25;1.83;;;15.50;99.90;;;;;;5072128;28;20467;-79
2023/10/03 11:03:10;;;;;;;11.90;2.38;;;15.50;99.90;;;;;;5070943;28;20048;-80
2023/10/03 11:05:47;;;;;;;11.70;2.30;;;15.60;99.90;;;;;;5072083;28;20064;-80
2023/10/03 11:08:14;;;;;;;8.02;2.17;;;15.60;99.90;;;;;;5070872;28;20052;-80
2023/10/03 11:10:56;;;;;;;9.05;1.80;;;15.60;99.90;;;;;;5071095;28;20032;-80
2023/10/03 11:13:23;;;;;;;12.32;2.17;;;15.60;99.90;;;;;;5071173;28;20119;-79
2023/10/03 11:15:53;;;;;;;6.00;1.67;;;15.60;99.90;;;;;;5071024;28;20048;-81
2023/10/03 11:18:32;;;;;;;7.10;2.13;;;15.70;99.90;;;;;;5072536;28;20058;-80
2023/10/03 11:20:59;;;;;;;8.32;2.33;;;15.70;99.90;;;;;;5072740;28;20036;-79
2023/10/03 11:23:25;;;;;;;6.88;2.17;;;15.70;99.90;;;;;;5053679;28;20040;-79
2023/10/03 11:25:58;;;;;;;7.10;1.98;;;15.60;99.90;;;;;;5071719;28;20387;-81
2023/10/03 11:28:25;;;;;;;7.85;1.75;;;15.50;99.90;;;;;;5071273;28;20036;-79
2023/10/03 11:31:04;;;;;;;10.90;1.90;;;15.40;99.90;;;;;;5071174;28;20323;-80
2023/10/03 11:33:46;;;;;;;6.70;1.67;;;15.30;99.90;;;;;;5054118;28;20044;-78
2023/10/03 11:36:14;;;;;;;8.77;1.47;;;15.40;99.90;;;;;;5073396;28;20812;-80
2023/10/03 11:38:54;;;;;;;5.45;1.30;;;15.50;99.90;;;;;;5070444;28;20066;-77
2023/10/03 11:41:29;;;;;;;11.18;1.92;;;15.60;99.90;;;;;;5070190;28;20463;-78
2023/10/03 11:43:55;;;;;;;6.00;1.60;;;15.80;99.90;;;;;;5069583;28;20021;-79
2023/10/03 11:46:21;;;;;;;9.90;1.90;;;15.80;99.90;;;;;;5070063;28;20101;-80
2023/10/03 11:48:59;;;;;;;6.57;1.98;;;15.90;99.90;;;;;;5052332;28;20643;-79
2023/10/03 11:51:29;;;;;;;9.30;1.80;;;15.80;99.90;;;;;;5069920;28;20040;-80
2023/10/03 11:53:56;;;;;;;6.00;1.60;;;15.90;99.90;;;;;;5051540;28;20486;-80
2023/10/03 11:56:21;;;;;;;9.82;1.73;;;15.90;99.90;;;;;;5070743;28;20024;-81
2023/10/03 11:58:47;;;;;;;5.07;1.83;;;15.90;99.90;;;;;;5053081;28;20051;-80
2023/10/03 12:01:13;;;;;;;7.35;1.48;;;15.90;99.90;;;;;;5052743;28;20036;-80
2023/10/03 12:03:39;;;;;;;6.03;1.58;;;15.90;99.90;;;;;;5055857;28;20107;-80
2023/10/03 12:06:04;;;;;;;6.32;1.50;;;16.00;99.90;;;;;;5071549;28;20411;-79
2023/10/03 12:08:36;;;;;;;11.32;2.53;;;16.00;99.90;;;;;;5070932;28;20025;-79
2023/10/03 12:11:05;;;;;;;7.50;1.65;;;16.00;99.90;;;;;;5070629;28;20035;-79
2023/10/03 12:13:31;;;;;;;6.70;1.50;;;16.10;99.90;;;;;;5072360;28;20020;-79
2023/10/03 12:15:56;;;;;;;8.18;2.13;;;16.10;99.90;;;;;;5074267;28;20028;-80
2023/10/03 12:18:22;;;;;;;9.50;2.00;;;16.00;99.90;;;;;;5071530;28;20434;-79
2023/10/03 12:20:48;;;;;;;7.38;1.95;;;15.90;99.90;;;;;;5071147;28;20114;-80
2023/10/03 12:23:15;;;;;;;4.38;1.60;;;15.80;99.90;;;;;;5051023;28;20398;-78
2023/10/03 12:25:41;;;;;;;6.68;2.35;;;15.70;99.90;;;;;;5069799;28;20059;-78
2023/10/03 12:28:09;;;;;;;9.88;2.63;;;15.70;99.90;;;;;;5068875;28;20020;-80
2023/10/03 12:30:35;;;;;;;7.97;2.10;;;15.80;99.90;;;;;;5069944;28;20037;-79
2023/10/03 12:33:01;;;;;;;9.68;1.90;;;16.00;99.90;;;;;;5069397;28;20035;-79
2023/10/03 12:35:27;;;;;;;7.50;2.17;;;16.10;99.90;;;;;;5069596;28;20119;-79
2023/10/03 12:37:56;;;;;;;9.05;2.30;;;16.10;99.90;;;;;;5051337;28;20032;-79
2023/10/03 12:40:25;;;;;;;7.15;2.28;;;16.20;99.90;;;;;;5069650;28;20408;-81
2023/10/03 12:42:51;;;;;;;6.55;2.28;;;16.20;99.90;;;;;;5051468;28;20032;-79
2023/10/03 12:45:20;;;;;;;9.85;2.42;;;16.20;99.90;;;;;;5069448;28;20113;-80
2023/10/03 12:47:47;;;;;;;7.88;2.50;;;16.10;99.90;;;;;;5069263;28;20390;-79
2023/10/03 12:50:21;;;;;;;12.00;3.08;;;16.00;99.90;;;;;;5069230;28;20075;-80
2023/10/03 12:52:55;;;;;;;10.18;2.85;;;16.10;99.90;;;;;;5051483;28;20475;-80
2023/10/03 12:55:25;;;;;;;8.98;3.00;;;16.10;99.90;;;;;;5069993;28;20451;-81
2023/10/03 12:57:51;;;;;;;9.82;2.90;;;16.20;99.90;;;;;;5069165;28;20150;-80